createdAt,value
2022-08-03T00:00:15.516Z,74.17
2022-08-03T00:04:37.495Z,74.55
2022-08-03T00:08:40.086Z,74.17
2022-08-03T00:12:42.704Z,74.06
2022-08-03T00:16:44.893Z,74.10
2022-08-03T00:20:47.115Z,74.19
2022-08-03T00:24:49.228Z,74.19
2022-08-03T00:28:51.528Z,74.12
2022-08-03T00:32:53.636Z,74.01
2022-08-03T00:36:55.914Z,74.24
2022-08-03T00:40:58.045Z,74.67
2022-08-03T00:45:00.201Z,74.71
2022-08-03T00:49:02.523Z,74.57
2022-08-03T00:53:05.949Z,75.20
2022-08-03T00:57:08.738Z,75.75
2022-08-03T01:01:11.942Z,75.59
2022-08-03T01:05:14.465Z,75.32
2022-08-03T01:09:45.491Z,75.54
2022-08-03T01:14:18.419Z,75.44
2022-08-03T01:18:46.786Z,75.12
2022-08-03T01:23:08.433Z,74.69
2022-08-03T01:27:18.793Z,75.08
2022-08-03T01:31:25.841Z,75.52
2022-08-03T01:36:03.730Z,75.41
2022-08-03T01:40:08.439Z,75.33
2022-08-03T01:44:30.182Z,75.52
2022-08-03T01:48:33.832Z,75.93
2022-08-03T01:52:40.078Z,76.00
2022-08-03T01:56:44.278Z,75.64
2022-08-03T02:00:49.203Z,76.08
2022-08-03T02:04:53.896Z,75.94
2022-08-03T02:08:57.289Z,76.05
2022-08-03T02:13:02.178Z,76.20
2022-08-03T02:17:07.436Z,76.34
2022-08-03T02:21:11.635Z,76.65
2022-08-03T02:25:41.109Z,76.24
2022-08-03T02:29:49.542Z,76.48
2022-08-03T02:33:55.739Z,76.11
2022-08-03T02:38:01.972Z,75.58
2022-08-03T02:42:08.360Z,76.25
2022-08-03T02:46:14.584Z,76.49
2022-08-03T02:50:17.909Z,76.41
2022-08-03T02:54:22.880Z,76.00
2022-08-03T02:58:25.916Z,76.45
2022-08-03T03:02:28.905Z,76.51
2022-08-03T03:06:31.670Z,76.88
2022-08-03T03:10:34.413Z,76.91
2022-08-03T03:14:37.649Z,76.74
2022-08-03T03:18:40.342Z,76.82
2022-08-03T03:22:51.460Z,77.08
2022-08-03T03:26:54.157Z,77.29
2022-08-03T03:30:56.413Z,76.98
2022-08-03T03:34:59.678Z,77.23
2022-08-03T03:39:15.436Z,77.29
2022-08-03T03:43:18.633Z,77.36
2022-08-03T03:47:32.751Z,77.41
2022-08-03T03:51:35.347Z,77.52
2022-08-03T03:55:57.782Z,77.76
2022-08-03T04:00:00.502Z,77.84
2022-08-03T04:04:22.541Z,77.65
2022-08-03T04:08:43.250Z,77.74
2022-08-03T04:12:50.932Z,77.73
2022-08-03T04:17:02.291Z,77.98
2022-08-03T04:21:11.069Z,78.10
2022-08-03T04:25:17.822Z,78.30
2022-08-03T04:29:22.074Z,78.72
2022-08-03T04:33:29.624Z,78.84
2022-08-03T04:37:45.685Z,78.81
2022-08-03T04:42:08.171Z,78.92
2022-08-03T04:46:11.854Z,78.86
2022-08-03T04:50:20.919Z,78.71
2022-08-03T04:54:41.649Z,78.44
2022-08-03T04:58:44.125Z,77.85
2022-08-03T05:02:47.757Z,77.68
2022-08-03T05:06:55.122Z,77.32
2022-08-03T05:10:59.116Z,77.14
2022-08-03T05:15:02.136Z,77.18
2022-08-03T05:19:04.290Z,77.38
2022-08-03T05:23:06.345Z,77.27
2022-08-03T05:27:08.493Z,76.67
2022-08-03T05:31:11.805Z,75.89
2022-08-03T05:36:00.564Z,74.12
2022-08-03T05:39:36.389Z,73.41
2022-08-03T05:43:38.519Z,73.56
2022-08-03T05:47:44.804Z,73.20
2022-08-03T05:51:47.053Z,72.35
2022-08-03T05:56:03.508Z,71.28
2022-08-03T06:00:17.391Z,70.17
2022-08-03T06:04:21.399Z,69.06
2022-08-03T06:08:23.701Z,68.06
2022-08-03T06:12:25.791Z,67.07
2022-08-03T06:16:27.996Z,66.34
2022-08-03T06:20:30.101Z,65.78
2022-08-03T06:24:32.646Z,65.28
2022-08-03T06:28:53.038Z,64.75
2022-08-03T06:32:56.224Z,64.46
2022-08-03T06:37:01.934Z,64.48
2022-08-03T06:41:05.535Z,64.26
2022-08-03T06:45:11.424Z,64.05
2022-08-03T06:49:13.662Z,63.86
2022-08-03T06:53:21.326Z,63.62
2022-08-03T06:57:24.331Z,63.54
2022-08-03T07:01:26.402Z,63.73
2022-08-03T07:05:28.689Z,63.58
2022-08-03T07:09:30.937Z,63.17
2022-08-03T07:13:35.823Z,62.62
2022-08-03T07:17:38.079Z,62.39
2022-08-03T07:21:40.196Z,61.93
2022-08-03T07:25:42.304Z,61.61
2022-08-03T07:29:44.519Z,61.48
2022-08-03T07:33:46.621Z,61.36
2022-08-03T07:37:54.517Z,61.24
2022-08-03T07:41:57.493Z,61.34
2022-08-03T07:45:59.596Z,61.70
2022-08-03T07:50:01.844Z,62.29
2022-08-03T07:54:04.558Z,62.17
2022-08-03T07:58:11.877Z,61.53
2022-08-03T08:02:14.735Z,61.07
2022-08-03T08:06:17.645Z,59.83
2022-08-03T08:10:20.489Z,58.75
2022-08-03T08:14:22.688Z,58.02
2022-08-03T08:18:25.030Z,57.83
2022-08-03T08:22:30.594Z,57.12
2022-08-03T08:26:33.599Z,56.57
2022-08-03T08:30:36.118Z,56.30
2022-08-03T08:34:38.214Z,56.35
2022-08-03T08:38:42.205Z,56.12
2022-08-03T08:42:58.090Z,55.93
2022-08-03T08:47:03.601Z,55.91
2022-08-03T08:51:06.597Z,55.59
2022-08-03T08:55:10.639Z,55.80
2022-08-03T08:59:13.851Z,55.64
2022-08-03T09:03:29.137Z,55.84
2022-08-03T09:07:33.345Z,55.96
2022-08-03T09:11:53.434Z,55.73
2022-08-03T09:16:24.135Z,55.57
2022-08-03T09:20:28.932Z,55.55
2022-08-03T09:24:41.127Z,55.49
2022-08-03T09:29:00.519Z,55.41
2022-08-03T09:33:11.700Z,55.25
2022-08-03T09:37:16.514Z,55.36
2022-08-03T09:41:19.352Z,54.65
2022-08-03T09:45:28.003Z,54.09
2022-08-03T09:49:30.234Z,54.62
2022-08-03T09:53:42.797Z,54.27
2022-08-03T09:58:10.963Z,54.28
2022-08-03T10:02:24.839Z,53.55
2022-08-03T10:06:29.055Z,52.81
2022-08-03T10:10:43.305Z,52.70
2022-08-03T10:14:46.788Z,52.69
2022-08-03T10:18:48.989Z,51.07
2022-08-03T10:22:51.981Z,50.60
2022-08-03T10:27:01.423Z,49.81
2022-08-03T10:31:07.283Z,49.52
2022-08-03T10:35:20.226Z,49.25
2022-08-03T10:39:27.857Z,49.83
2022-08-03T10:43:57.441Z,49.29
2022-08-03T10:48:00.488Z,49.05
2022-08-03T10:52:09.683Z,49.26
2022-08-03T10:56:52.630Z,49.64
2022-08-03T11:00:55.754Z,49.12
2022-08-03T11:05:28.042Z,48.61
2022-08-03T11:09:42.149Z,48.27
2022-08-03T11:14:04.717Z,47.62
2022-08-03T11:18:11.223Z,46.87
2022-08-03T11:22:15.353Z,46.77
2022-08-03T11:26:19.121Z,46.28
2022-08-03T11:30:21.177Z,46.93
2022-08-03T11:34:29.648Z,46.43
2022-08-03T11:38:32.120Z,46.37
2022-08-03T11:42:34.839Z,45.70
2022-08-03T11:46:37.726Z,44.45
2022-08-03T11:50:40.133Z,44.66
2022-08-03T11:54:42.606Z,44.95
2022-08-03T11:59:11.043Z,45.04
2022-08-03T12:03:15.848Z,44.61
2022-08-03T12:08:02.675Z,44.29
2022-08-03T12:11:41.088Z,44.14
2022-08-03T12:16:00.769Z,43.89
2022-08-03T12:20:05.376Z,43.77
2022-08-03T12:24:07.737Z,43.21
2022-08-03T12:28:37.128Z,42.50
2022-08-03T12:32:43.290Z,41.14
2022-08-03T12:36:54.060Z,41.28
2022-08-03T12:40:58.433Z,41.31
2022-08-03T12:45:00.770Z,41.72
2022-08-03T12:49:14.906Z,41.63
2022-08-03T12:53:28.935Z,41.53
2022-08-03T12:57:41.988Z,41.50
2022-08-03T13:01:55.189Z,41.38
2022-08-03T13:05:58.603Z,41.00
2022-08-03T13:10:04.888Z,40.86
2022-08-03T13:14:10.201Z,39.99
2022-08-03T13:18:19.165Z,39.99
2022-08-03T13:22:24.531Z,39.79
2022-08-03T13:26:26.736Z,38.82
2022-08-03T13:30:30.340Z,39.20
2022-08-03T13:34:33.220Z,39.20
2022-08-03T13:38:35.472Z,39.22
2022-08-03T13:42:38.946Z,38.47
2022-08-03T13:46:41.433Z,38.53
2022-08-03T13:50:43.652Z,37.92
2022-08-03T13:54:46.315Z,38.08
2022-08-03T13:58:49.457Z,38.45
2022-08-03T14:02:52.411Z,38.71
2022-08-03T14:06:54.562Z,38.79
2022-08-03T14:10:56.813Z,38.40
2022-08-03T14:15:01.594Z,38.04
2022-08-03T14:19:04.768Z,38.49
2022-08-03T14:23:07.251Z,38.27
2022-08-03T14:27:09.531Z,38.57
2022-08-03T14:32:08.990Z,38.60
2022-08-03T14:35:34.581Z,38.27
2022-08-03T14:44:01.438Z,37.67
2022-08-03T14:50:28.637Z,37.68
2022-08-03T14:52:27.216Z,36.93
2022-08-03T14:56:29.332Z,36.85
2022-08-03T15:00:35.922Z,36.05
2022-08-03T15:04:37.953Z,36.35
2022-08-03T15:08:40.133Z,36.52
2022-08-03T15:12:42.336Z,36.68
2022-08-03T15:16:44.621Z,37.15
2022-08-03T15:20:50.357Z,37.27
2022-08-03T15:24:53.400Z,37.77
2022-08-03T15:28:55.797Z,38.74
2022-08-03T15:32:57.996Z,39.05
2022-08-03T15:37:00.224Z,39.39
2022-08-03T15:41:04.781Z,38.74
2022-08-03T15:45:07.485Z,38.68
2022-08-03T15:49:09.757Z,38.85
2022-08-03T15:53:11.997Z,38.86
2022-08-03T15:57:14.216Z,39.06
2022-08-03T16:01:19.627Z,38.99
2022-08-03T16:05:22.078Z,38.26
2022-08-03T16:09:43.342Z,38.67
2022-08-03T16:14:11.941Z,38.90
2022-08-03T16:18:08.956Z,39.42
2022-08-03T16:22:11.199Z,38.99
2022-08-03T16:26:16.467Z,38.66
2022-08-03T16:30:18.742Z,38.64
2022-08-03T16:34:21.090Z,38.71
2022-08-03T16:38:24.657Z,38.77
2022-08-03T16:42:26.906Z,39.05
2022-08-03T16:46:29.218Z,39.25
2022-08-03T16:50:31.543Z,39.67
2022-08-03T16:54:34.957Z,40.01
2022-08-03T16:58:42.220Z,40.43
2022-08-03T17:02:51.816Z,41.04
2022-08-03T17:06:55.117Z,41.41
2022-08-03T17:10:57.434Z,41.87
2022-08-03T17:14:59.671Z,42.52
2022-08-03T17:19:05.791Z,42.95
2022-08-03T17:23:34.991Z,43.01
2022-08-03T17:28:48.530Z,43.27
2022-08-03T17:32:09.515Z,43.41
2022-08-03T17:36:13.538Z,43.73
2022-08-03T17:40:17.580Z,43.84
2022-08-03T17:44:30.114Z,44.44
2022-08-03T17:48:35.571Z,45.00
2022-08-03T17:52:48.446Z,45.83
2022-08-03T17:57:21.897Z,46.42
2022-08-03T18:02:30.450Z,47.21
2022-08-03T18:06:37.769Z,47.85
2022-08-03T18:11:09.726Z,48.33
2022-08-03T18:15:26.961Z,48.94
2022-08-03T18:20:03.894Z,49.35
2022-08-03T18:23:59.458Z,50.09
2022-08-03T18:28:04.944Z,50.78
2022-08-03T18:32:13.259Z,51.54
2022-08-03T18:40:48.730Z,52.91
2022-08-03T18:44:54.299Z,53.34
2022-08-03T18:49:18.414Z,54.04
2022-08-03T18:54:02.952Z,54.57
2022-08-03T18:57:59.289Z,54.99
2022-08-03T19:02:19.286Z,55.46
2022-08-03T19:06:25.313Z,56.12
2022-08-03T19:10:34.434Z,56.45
2022-08-03T19:14:44.043Z,56.99
2022-08-03T19:18:49.980Z,57.30
2022-08-03T19:22:54.953Z,57.54
2022-08-03T19:26:59.349Z,57.65
2022-08-03T19:31:06.456Z,57.98
2022-08-03T19:35:13.530Z,58.20
2022-08-03T19:39:21.242Z,58.58
2022-08-03T19:43:53.187Z,58.90
2022-08-03T19:48:06.773Z,59.31
2022-08-03T19:52:16.370Z,59.53
2022-08-03T19:56:25.932Z,59.75
2022-08-03T20:00:34.072Z,60.00
2022-08-03T20:04:40.384Z,60.21
2022-08-03T20:08:44.136Z,60.33
2022-08-03T20:12:49.309Z,60.74
2022-08-03T20:16:53.169Z,60.90
2022-08-03T20:20:59.326Z,61.43
2022-08-03T20:25:07.846Z,61.54
2022-08-03T20:29:16.533Z,61.50
2022-08-03T20:33:19.521Z,61.63
2022-08-03T20:37:30.536Z,62.24
2022-08-03T20:41:35.927Z,62.07
2022-08-03T20:45:58.219Z,62.41
2022-08-03T20:50:01.616Z,63.33
2022-08-03T20:54:22.536Z,63.68
2022-08-03T20:58:27.718Z,64.03
2022-08-03T21:02:31.318Z,64.18
2022-08-03T21:06:53.100Z,64.58
2022-08-03T21:10:58.693Z,64.66
2022-08-03T21:12:58.650Z,52.15
2022-08-03T21:15:05.049Z,64.78
2022-08-03T21:19:07.849Z,64.95
2022-08-03T21:23:12.487Z,65.48
2022-08-03T21:27:36.283Z,65.78
2022-08-03T21:31:39.924Z,65.52
2022-08-03T21:35:45.411Z,65.73
2022-08-03T21:39:50.664Z,66.28
2022-08-03T21:43:53.378Z,66.62
2022-08-03T21:47:57.177Z,66.94
2022-08-03T21:52:02.836Z,66.62
2022-08-03T21:56:10.266Z,66.54
2022-08-03T22:00:16.129Z,66.85
2022-08-03T22:04:55.017Z,67.03
2022-08-03T22:08:42.628Z,67.29
2022-08-03T22:12:44.742Z,67.02
2022-08-03T22:16:48.966Z,67.32
2022-08-03T22:20:52.263Z,67.58
2022-08-03T22:25:07.705Z,67.78
2022-08-03T22:29:11.895Z,68.14
2022-08-03T22:33:14.769Z,68.33
2022-08-03T22:37:19.764Z,68.48
2022-08-03T22:41:22.863Z,68.22
2022-08-03T22:46:07.695Z,68.20
2022-08-03T22:49:49.648Z,68.27
2022-08-03T22:54:12.006Z,68.57
2022-08-03T22:58:17.106Z,68.51
2022-08-03T23:02:21.983Z,68.16
2022-08-03T23:06:26.732Z,68.36
2022-08-03T23:10:33.172Z,68.57
2022-08-03T23:14:39.000Z,69.03
2022-08-03T23:18:43.381Z,68.73
2022-08-03T23:22:47.758Z,68.56
2022-08-03T23:26:50.909Z,68.81
2022-08-03T23:30:54.492Z,69.01
2022-08-03T23:35:18.580Z,68.93
2022-08-03T23:39:22.386Z,69.08
2022-08-03T23:43:44.982Z,69.08
2022-08-03T23:47:49.967Z,69.25
2022-08-03T23:52:20.280Z,69.15
2022-08-03T23:56:41.821Z,68.77
